SBOSBO PDL / LPPD
Speedbird OnlineSpeedbird Online PDL / LPPD

João Paulo II Airport
15:19 20°C

Location Ponta Delgada, Portugal
Latitude: 37.7411994934
Longitude: -25.6979007721
Local Time 15:19 on 30 May 2024
UTC 0 hours (Atlantic/Azores)
Currency £1 equals EUR 1.18
METAR LPPD 301500Z 25009KT 9999 FEW018 20/16 Q1014
TAF TAF LPPD 301100Z 3012/3112 23007KT 9999 SCT012 SCT025 TEMPO 3012/3112 8000 SHRA BKN012 FEW018CB
Weather As Of 30 May 2024 15:15
Description Few clouds
Wind 17 km/h from West (250°)
Cloud Cover 20%
Precipitation Rain: none, Snow: none
Sunrise 06:23
Sunset 20:57
NOTAM 3 active NOTAM
Web Airport Website | Wikipedia
Codes IATA: PDL
ICAO: LPPD
Altitude 79 Meter / 259 Feet
Distance 2,531 KM / 1,573 Miles
from London.
Runways
RunwayLength (m)Surface
122497Asphalt
302497Asphalt
Radio
TypeDescriptionFrequency
APPAPP119.4
TWRTWR118.3
Live ATC



Support Speedbird Online

© 2017-2024 Speedbird Online